Historique des mesures à Cassis (13260), France
Quotidien Résumé Avril 28, 2017 Unités:  Métrique    US   Métrique/US
« Précédent (Jour)
Suivant (Jour) »
Quotidien Hebdomadaire Mensuel Annuel Période au choix
  Maximum: Minimum: Moyenne:
Température: TemperatureC °C 7.9 °C 10.6 °C
Point de rosée: DewpointC °C -0.7 °C 0.4 °C
Humidité: Humidity % 38 % 47 %
Vitesse du vent: 0 km/h 13.2 km/h 32.8 km/h
Rafales: 0 km/h - -
Vent:- - SSW
Pression: PressurehPa hPa 1008.0 hPa -
Précipitations: 0.0 mm    
Historical Graphs
 
 
Mesures pour : Avril 28, 2017
Heure Temperature Point de rosée Pression Vent Vitesse du vent Rafales Humidité Pluie (par heure) Conditions
TemperatureC °C DewpointC °C PressurehPa hPa Calm     Humidity % HourlyPrecipMM mm SoftwareType W/m2
00:10 9.2 °C 1.4 °C 1008.7 hPa NW 22 km/h 26.2 km/h 58 % 0.0 mm open2300-1.11 W/m2
01:10 8.6 °C 1.1 °C 1008.7 hPa NNE 16.9 km/h 51.5 km/h 59 % 0.0 mm open2300-1.11 W/m2
02:10 8.1 °C 1.0 °C 1008.4 hPa NW 23 km/h 56.2 km/h 61 % 0.0 mm open2300-1.11 W/m2
03:11 8.1 °C 1.2 °C 1008.0 hPa WNW 13.2 km/h 31.9 km/h 62 % 0.0 mm open2300-1.11 W/m2
04:10 7.9 °C 0.8 °C 1008.0 hPa NW 49.7 km/h 49.7 km/h 61 % 0.0 mm open2300-1.11 W/m2
05:10 7.9 °C 0.6 °C 1008.4 hPa North 34.1 km/h 53.9 km/h 60 % 0.0 mm open2300-1.11 W/m2
06:10 7.9 °C 0.4 °C 1008.4 hPa NNE 27.2 km/h 39.9 km/h 59 % 0.0 mm open2300-1.11 W/m2
07:10 7.9 °C 0.1 °C 1009.0 hPa NNW 54.4 km/h 57.9 km/h 58 % 0.0 mm open2300-1.11 W/m2
08:10 9.8 °C 0.4 °C 1008.7 hPa NNW 44.1 km/h 47.3 km/h 52 % 0.0 mm open2300-1.11 W/m2
09:11 8.8 °C -0.1 °C 1009.0 hPa NW 44.6 km/h 46.3 km/h 54 % 0.0 mm open2300-1.11 W/m2
10:11 9.7 °C 0.1 °C 1009.4 hPa NNW 45.4 km/h 102.5 km/h 51 % 0.0 mm open2300-1.11 W/m2
11:10 11.5 °C -0.1 °C 1009.4 hPa NNW 46.3 km/h 46.3 km/h 45 % 0.0 mm open2300-1.11 W/m2
12:10 12.4 °C 0.1 °C 1009.4 hPa NNW 47.3 km/h 77.1 km/h 43 % 0.0 mm open2300-1.11 W/m2
13:11 13.0 °C 0.3 °C 1009.0 hPa NNE 31.9 km/h 31.9 km/h 42 % 0.0 mm open2300-1.11 W/m2
14:10 13.6 °C 0.6 °C 1009.0 hPa NNE 37 km/h 54.4 km/h 41 % 0.0 mm open2300-1.11 W/m2
15:10 14.4 °C 0.6 °C 1009.0 hPa North 33.6 km/h 51 km/h 39 % 0.0 mm open2300-1.11 W/m2
16:11 14.8 °C 0.9 °C 1008.7 hPa NE 23 km/h 79.2 km/h 39 % 0.0 mm open2300-1.11 W/m2
17:10 14.9 °C 1.0 °C 1009.0 hPa North 17.4 km/h 46.3 km/h 39 % 0.0 mm open2300-1.11 W/m2
18:10 14.6 °C 0.4 °C 1008.7 hPa NW 75.8 km/h 75.8 km/h 38 % 0.0 mm open2300-1.11 W/m2
19:11 13.9 °C 0.1 °C 1009.4 hPa WNW 30.7 km/h 30.7 km/h 39 % 0.0 mm open2300-1.11 W/m2
20:11 13.1 °C -0.2 °C 1009.7 hPa NNW 30.7 km/h 34.8 km/h 40 % 0.0 mm open2300-1.11 W/m2
21:10 12.4 °C -0.2 °C 1009.7 hPa WNW 29 km/h 29 km/h 42 % 0.0 mm open2300-1.11 W/m2
22:10 11.9 °C -0.7 °C 1010.7 hPa NNW 31.4 km/h 35.2 km/h 42 % 0.0 mm open2300-1.11 W/m2
23:10 11.2 °C -0.4 °C 1010.7 hPa North 13.2 km/h 33.6 km/h 45 % 0.0 mm open2300-1.11 W/m2
Observations météo à CASSIS
WU-History script by Weather Underground - 1 mb